Time;durP1;ratioP1;P1;durP2;ratioP2;P2;SDS_P1;SDS_P2;PMS_P1;PMS_P2;Temp;Humidity;BMP_temperature;BMP_pressure;BME280_temperature;BME280_humidity;BME280_pressure;Samples;Min_cycle;Max_cycle;Signal;HPM_P1;HPM_P2
2023/10/05 00:01:02;;;;;;;10.18;3.05;;;;;;;11.52;100.00;102320.09;5031582;28;20018;-77
2023/10/05 00:03:28;;;;;;;8.70;2.63;;;;;;;11.53;100.00;102313.97;5030847;28;20373;-77
2023/10/05 00:05:56;;;;;;;10.98;3.13;;;;;;;11.57;100.00;102320.06;5031149;28;20026;-77
2023/10/05 00:08:22;;;;;;;6.82;2.58;;;;;;;11.53;100.00;102320.97;5070227;28;20451;-77
2023/10/05 00:10:48;;;;;;;11.05;3.25;;;;;;;11.59;100.00;102329.63;5026969;28;20026;-77
2023/10/05 00:13:13;;;;;;;6.50;2.60;;;;;;;11.60;100.00;102322.66;5022052;28;20037;-77
2023/10/05 00:15:38;;;;;;;9.70;2.85;;;;;;;11.59;100.00;102318.31;5043841;28;20040;-77
2023/10/05 00:18:05;;;;;;;7.93;2.92;;;;;;;11.61;100.00;102333.13;5020986;28;20030;-77
2023/10/05 00:20:38;;;;;;;7.55;2.40;;;;;;;11.60;100.00;102328.75;5040984;28;20029;-77
2023/10/05 00:23:08;;;;;;;10.98;3.70;;;;;;;11.65;100.00;102339.19;5019450;28;20041;-77
2023/10/05 00:25:33;;;;;;;8.38;2.78;;;;;;;11.62;100.00;102334.00;5042003;28;20021;-77
2023/10/05 00:28:04;;;;;;;10.73;3.10;;;;;;;11.64;100.00;102329.59;5024742;28;20045;-77
2023/10/05 00:30:31;;;;;;;11.90;2.72;;;;;;;11.66;100.00;102335.69;5042675;28;20361;-77
2023/10/05 00:32:58;;;;;;;12.48;3.05;;;;;;;11.66;100.00;102338.31;5023778;28;20028;-77
2023/10/05 00:35:28;;;;;;;10.02;2.78;;;;;;;11.64;100.00;102334.84;5042996;28;20044;-77
2023/10/05 00:38:01;;;;;;;8.43;2.65;;;;;;;11.61;100.00;102338.34;5027706;28;20056;-77
2023/10/05 00:40:36;;;;;;;12.68;3.13;;;;;;;11.62;100.00;102336.59;5011649;28;20064;-77
2023/10/05 00:43:23;;;;;;;10.45;3.08;;;;;;;11.62;100.00;102344.44;5027944;28;20037;-77
2023/10/05 00:45:50;;;;;;;9.35;2.85;;;;;;;11.61;100.00;102346.19;5043757;28;20484;-77
2023/10/05 00:49:20;;;;;;;8.40;2.70;;;;;;;11.60;100.00;102351.41;5055298;28;20037;-77
2023/10/05 00:51:23;;;;;;;7.65;2.80;;;;;;;11.56;100.00;102344.44;5037174;28;20030;-77
2023/10/05 00:53:49;;;;;;;9.23;2.90;;;;;;;11.59;100.00;102345.31;5051984;28;20028;-77
2023/10/05 00:56:15;;;;;;;8.68;2.97;;;;;;;11.58;100.00;102353.16;5018738;28;20034;-77
2023/10/05 00:58:44;;;;;;;6.45;2.45;;;;;;;11.56;100.00;102349.69;5039837;28;20024;-77
2023/10/05 01:01:21;;;;;;;8.80;2.70;;;;;;;11.56;100.00;102349.69;5019611;28;20118;-77
2023/10/05 01:06:55;;;;;;;10.82;2.90;;;;;;;11.51;100.00;102348.81;5022143;28;20435;-77
2023/10/05 01:12:14;;;;;;;8.93;2.78;;;;;;;11.48;100.00;102352.31;5006891;28;20098;-77
2023/10/05 01:14:53;;;;;;;10.65;3.00;;;;;;;11.48;100.00;102358.41;5035890;28;20386;-77
2023/10/05 01:17:21;;;;;;;8.05;2.90;;;;;;;11.47;100.00;102351.44;5024649;28;20047;-77
2023/10/05 01:19:53;;;;;;;11.90;3.25;;;;;;;11.45;100.00;102350.59;5037152;28;20038;-77
2023/10/05 01:22:21;;;;;;;13.52;3.35;;;;;;;11.45;100.00;102347.97;5025008;28;20028;-77
2023/10/05 01:24:48;;;;;;;6.95;2.78;;;;;;;11.46;100.00;102349.69;5032719;28;20038;-77
2023/10/05 01:27:14;;;;;;;12.20;2.97;;;;;;;11.45;100.00;102347.97;5046586;28;20047;-77
2023/10/05 01:29:40;;;;;;;10.32;2.88;;;;;;;11.43;100.00;102344.50;5037122;28;20038;-77
2023/10/05 01:32:07;;;;;;;11.77;2.97;;;;;;;11.43;100.00;102338.41;5013531;28;20095;-77
2023/10/05 01:34:32;;;;;;;12.88;3.67;;;;;;;11.44;100.00;102337.50;5036171;28;20029;-77
2023/10/05 01:36:58;;;;;;;8.93;2.85;;;;;;;11.35;100.00;102334.97;5018465;28;20103;-77
2023/10/05 01:39:25;;;;;;;7.28;2.85;;;;;;;11.43;100.00;102352.31;5038479;28;20023;-77
2023/10/05 01:41:50;;;;;;;8.48;2.72;;;;;;;11.42;100.00;102340.16;5019402;28;20040;-77
2023/10/05 01:44:16;;;;;;;10.82;3.22;;;;;;;11.42;100.00;102345.38;5034657;28;20025;-77
2023/10/05 01:46:42;;;;;;;7.93;2.97;;;;;;;11.44;100.00;102340.13;5050976;28;20054;-77
2023/10/05 01:49:08;;;;;;;6.88;2.83;;;;;;;11.44;100.00;102338.41;5032958;28;20501;-77
2023/10/05 01:51:34;;;;;;;8.05;2.80;;;;;;;11.43;100.00;102333.19;5021341;28;20025;-77
2023/10/05 01:54:10;;;;;;;6.95;3.03;;;;;;;11.42;100.00;102337.53;5035382;28;20030;-77
2023/10/05 01:56:37;;;;;;;12.75;3.22;;;;;;;11.43;100.00;102338.41;5005000;28;20075;-77
2023/10/05 01:59:06;;;;;;;13.70;3.10;;;;;;;11.38;100.00;102335.81;5035559;28;20025;-77
2023/10/05 02:01:34;;;;;;;11.18;2.75;;;;;;;11.39;100.00;102329.72;5021482;28;20026;-77
2023/10/05 02:04:00;;;;;;;8.05;3.00;;;;;;;11.36;100.00;102331.47;5037474;28;20028;-77
2023/10/05 02:06:28;;;;;;;11.63;3.03;;;;;;;11.37;100.00;102334.06;5019645;28;20477;-77
2023/10/05 02:08:54;;;;;;;10.23;3.10;;;;;;;11.38;100.00;102335.81;5039877;28;20024;-77
2023/10/05 02:11:24;;;;;;;7.70;2.90;;;;;;;11.38;100.00;102335.81;5020228;28;20022;-77
2023/10/05 02:13:50;;;;;;;6.95;2.80;;;;;;;11.35;100.00;102337.56;5038786;28;20509;-77
2023/10/05 02:16:18;;;;;;;8.77;3.10;;;;;;;11.33;100.00;102327.13;5028010;28;20109;-77
2023/10/05 02:18:44;;;;;;;8.68;3.20;;;;;;;11.33;100.00;102321.91;5031680;28;20021;-77
2023/10/05 02:21:17;;;;;;;11.55;3.03;;;;;;;11.30;100.00;102324.50;5037154;28;20359;-77
2023/10/05 02:23:44;;;;;;;10.00;2.80;;;;;;;11.28;100.00;102318.44;5028719;28;20397;-77
2023/10/05 02:26:33;;;;;;;11.90;2.85;;;;;;;11.33;100.00;102321.03;5010906;28;20421;-77
2023/10/05 02:28:58;;;;;;;7.72;3.10;;;;;;;11.27;100.00;102316.69;5014008;28;20046;-77
2023/10/05 02:31:28;;;;;;;7.60;2.97;;;;;;;11.28;100.00;102323.66;5011584;28;20065;-77
2023/10/05 02:33:54;;;;;;;10.18;3.35;;;;;;;11.28;100.00;102325.38;5010681;28;20029;-77
2023/10/05 02:36:30;;;;;;;10.20;2.97;;;;;;;11.21;100.00;102311.47;5024299;28;20029;-77
2023/10/05 02:38:56;;;;;;;5.90;2.88;;;;;;;11.22;100.00;102315.84;5036661;28;20026;-77
2023/10/05 02:41:37;;;;;;;10.05;2.83;;;;;;;11.26;100.00;102322.78;5006974;28;20079;-77
2023/10/05 02:44:08;;;;;;;7.82;2.95;;;;;;;11.20;100.00;102305.41;5036233;28;20034;-77
2023/10/05 02:46:33;;;;;;;10.20;3.33;;;;;;;11.20;100.00;102310.63;5027041;28;20048;-77
2023/10/05 02:48:59;;;;;;;10.77;3.20;;;;;;;11.14;100.00;102305.41;5039800;28;20034;-77
2023/10/05 02:51:24;;;;;;;9.48;3.30;;;;;;;11.06;100.00;102299.34;5027116;28;20030;-77
2023/10/05 02:53:55;;;;;;;11.32;3.08;;;;;;;11.09;100.00;102303.69;5042701;28;20038;-77
2023/10/05 02:56:27;;;;;;;10.80;2.72;;;;;;;11.06;100.00;102309.78;5026141;28;20041;-77
2023/10/05 02:58:55;;;;;;;10.05;3.45;;;;;;;11.07;100.00;102310.66;5043772;28;20094;-77
2023/10/05 03:01:22;;;;;;;9.15;3.05;;;;;;;11.04;100.00;102316.75;5025714;28;20029;-77
2023/10/05 03:03:48;;;;;;;6.93;3.15;;;;;;;11.05;100.00;102321.06;5046783;28;20030;-77
2023/10/05 03:06:15;;;;;;;7.15;3.17;;;;;;;11.06;100.00;102319.38;5032603;28;20473;-77
2023/10/05 03:08:41;;;;;;;8.02;3.25;;;;;;;11.08;100.00;102317.59;5037942;28;20037;-77
2023/10/05 03:11:08;;;;;;;16.38;3.33;;;;;;;11.06;100.00;102306.31;5041203;27;20492;-77
2023/10/05 03:13:38;;;;;;;10.30;2.90;;;;;;;11.02;100.00;102302.84;5030426;28;20025;-77
2023/10/05 03:16:06;;;;;;;10.77;3.28;;;;;;;10.96;100.00;102293.28;5048745;28;20016;-77
2023/10/05 03:18:37;;;;;;;8.82;3.13;;;;;;;10.98;100.00;102303.69;5027469;28;20154;-77
2023/10/05 03:21:09;;;;;;;8.80;3.22;;;;;;;10.96;100.00;102308.94;5026472;28;20460;-77
2023/10/05 03:23:35;;;;;;;6.30;3.00;;;;;;;10.97;100.00;102302.84;5025944;28;20082;-77
2023/10/05 03:26:00;;;;;;;12.60;3.33;;;;;;;10.94;100.00;102308.06;5058899;28;20025;-77
2023/10/05 03:28:25;;;;;;;8.13;3.08;;;;;;;10.94;100.00;102307.19;5025252;28;20044;-77
2023/10/05 03:30:53;;;;;;;10.32;3.50;;;;;;;10.89;100.00;102302.00;5051302;28;20025;-77
2023/10/05 03:33:23;;;;;;;8.05;3.20;;;;;;;10.88;100.00;102301.97;5019616;28;20022;-77
2023/10/05 03:35:48;;;;;;;12.18;3.72;;;;;;;10.89;100.00;102301.09;5022441;28;20142;-77
2023/10/05 03:38:19;;;;;;;8.52;3.55;;;;;;;10.87;100.00;102300.25;5042504;28;20739;-77
2023/10/05 03:40:44;;;;;;;8.43;3.50;;;;;;;10.84;100.00;102298.50;5024468;28;20095;-77
2023/10/05 03:43:10;;;;;;;11.80;3.67;;;;;;;10.84;100.00;102301.13;5044147;28;20062;-77
2023/10/05 03:45:38;;;;;;;8.27;3.55;;;;;;;10.81;100.00;102293.28;5022744;28;20041;-77
2023/10/05 03:48:05;;;;;;;9.07;3.30;;;;;;;10.78;100.00;102307.19;5042448;28;20036;-77
2023/10/05 03:50:31;;;;;;;11.73;4.03;;;;;;;10.76;100.00;102305.50;5019340;28;20037;-77
2023/10/05 03:52:57;;;;;;;14.43;4.13;;;;;;;10.72;100.00;102311.56;5043492;28;20021;-77
2023/10/05 03:55:24;;;;;;;9.15;3.17;;;;;;;10.72;100.00;102306.34;5027569;28;20041;-77
2023/10/05 03:57:50;;;;;;;11.38;3.95;;;;;;;10.71;100.00;102300.25;5043293;28;20106;-77
2023/10/05 04:00:22;;;;;;;11.35;3.55;;;;;;;10.73;100.00;102302.88;5028578;28;20065;-77
2023/10/05 04:02:48;;;;;;;10.07;3.57;;;;;;;10.70;100.00;102295.06;5011941;28;20108;-77
2023/10/05 04:05:18;;;;;;;6.97;3.42;;;;;;;10.68;100.00;102288.97;5029269;28;20158;-77
2023/10/05 04:07:43;;;;;;;6.25;3.38;;;;;;;10.64;100.00;102282.03;5045153;28;20111;-77
2023/10/05 04:10:13;;;;;;;10.20;3.25;;;;;;;10.55;100.00;102281.13;5030880;28;20072;-77
2023/10/05 04:12:40;;;;;;;6.93;3.25;;;;;;;10.57;100.00;102295.94;5043709;28;20057;-77
2023/10/05 04:15:11;;;;;;;10.52;3.58;;;;;;;10.52;100.00;102298.53;5030990;28;20451;-77
2023/10/05 04:17:37;;;;;;;8.73;4.05;;;;;;;10.49;100.00;102294.19;5044983;28;20028;-77
2023/10/05 04:20:19;;;;;;;12.07;3.72;;;;;;;10.46;100.00;102294.19;5030556;28;20104;-77
2023/10/05 04:22:47;;;;;;;12.60;3.80;;;;;;;10.42;100.00;102292.44;5046074;28;20026;-77
2023/10/05 04:25:16;;;;;;;9.23;3.70;;;;;;;10.40;100.00;102295.91;5031805;28;20035;-77
2023/10/05 04:27:42;;;;;;;12.63;3.70;;;;;;;10.40;100.00;102295.91;5047225;28;20038;-77
2023/10/05 04:30:07;;;;;;;14.65;3.95;;;;;;;10.32;100.00;102285.50;5032615;28;20043;-77
2023/10/05 04:32:33;;;;;;;10.32;3.80;;;;;;;10.35;100.00;102295.91;5017639;28;20154;-77
2023/10/05 04:34:58;;;;;;;7.88;3.95;;;;;;;10.30;100.00;102282.03;5010085;28;20029;-77
2023/10/05 04:37:25;;;;;;;16.98;4.82;;;;;;;10.29;100.00;102286.34;5040677;28;20063;-77
2023/10/05 04:39:51;;;;;;;9.45;3.55;;;;;;;10.38;100.00;102301.13;5024159;28;20029;-77
2023/10/05 04:42:16;;;;;;;13.43;3.80;;;;;;;10.37;100.00;102298.53;5039895;28;20040;-77
2023/10/05 04:44:41;;;;;;;7.85;4.03;;;;;;;10.37;100.00;102304.63;5027018;28;20030;-77
2023/10/05 04:47:09;;;;;;;10.70;4.03;;;;;;;10.32;100.00;102298.53;5039065;28;20030;-77
2023/10/05 04:49:37;;;;;;;8.45;3.65;;;;;;;10.35;100.00;102302.88;5027328;28;20073;-77
2023/10/05 04:52:06;;;;;;;11.82;3.78;;;;;;;10.32;100.00;102293.31;5044420;28;20090;-77
2023/10/05 04:54:34;;;;;;;8.90;4.07;;;;;;;10.34;100.00;102298.53;5055272;28;20019;-77
2023/10/05 04:57:22;;;;;;;11.48;4.38;;;;;;;10.32;100.00;102304.59;5053728;28;20035;-77
2023/10/05 04:59:48;;;;;;;7.50;4.43;;;;;;;10.31;100.00;102289.84;5058044;28;20021;-77
2023/10/05 05:02:38;;;;;;;10.95;4.32;;;;;;;10.31;100.00;102287.22;5053808;28;20078;-77
2023/10/05 05:08:08;;;;;;;13.23;4.68;;;;;;;10.37;100.00;102282.91;5072794;28;20051;-78
2023/10/05 05:10:35;;;;;;;7.80;4.10;;;;;;;10.40;100.00;102298.50;5070115;28;20074;-78
2023/10/05 05:13:01;;;;;;;11.55;4.22;;;;;;;10.41;100.00;102297.66;5046013;28;20468;-77
2023/10/05 05:15:27;;;;;;;10.40;4.18;;;;;;;10.41;100.00;102306.34;5038951;28;20074;-77
2023/10/05 05:17:52;;;;;;;10.45;4.35;;;;;;;10.46;100.00;102308.94;5020752;28;20032;-77
2023/10/05 05:20:18;;;;;;;14.93;4.78;;;;;;;10.50;100.00;102298.53;5039144;28;20029;-77
2023/10/05 05:22:46;;;;;;;10.00;4.32;;;;;;;10.51;100.00;102302.00;5017671;28;20102;-77
2023/10/05 05:25:12;;;;;;;9.80;4.28;;;;;;;10.51;100.00;102300.28;5039551;28;20345;-77
2023/10/05 05:27:37;;;;;;;11.35;3.65;;;;;;;10.55;100.00;102312.44;5023187;28;20113;-78
2023/10/05 05:30:11;;;;;;;18.75;5.55;;;;;;;10.53;100.00;102313.31;5039724;28;20496;-77
2023/10/05 05:32:36;;;;;;;14.65;4.43;;;;;;;10.51;100.00;102308.09;5022698;28;20047;-77
2023/10/05 05:35:02;;;;;;;10.52;3.78;;;;;;;10.46;100.00;102308.94;5018236;28;20017;-77
2023/10/05 05:37:30;;;;;;;9.50;3.95;;;;;;;10.50;100.00;102318.53;5022228;28;20025;-77
2023/10/05 05:39:57;;;;;;;11.63;4.00;;;;;;;10.51;100.00;102318.53;5032016;28;20052;-78
2023/10/05 05:42:30;;;;;;;11.50;4.15;;;;;;;10.49;100.00;102309.81;5023437;28;20124;-77
2023/10/05 05:44:55;;;;;;;12.20;4.40;;;;;;;10.58;100.00;102321.13;5054280;28;20021;-77
2023/10/05 05:47:20;;;;;;;10.40;4.38;;;;;;;10.65;100.00;102330.69;5024833;28;20434;-77
2023/10/05 05:49:46;;;;;;;14.30;4.68;;;;;;;10.70;100.00;102318.53;5047602;28;20053;-77
2023/10/05 05:52:12;;;;;;;14.30;4.40;;;;;;;10.74;100.00;102322.88;5033632;28;20540;-77
2023/10/05 05:54:38;;;;;;;16.38;4.65;;;;;;;10.77;100.00;102326.34;5048866;28;20057;-77
2023/10/05 05:57:07;;;;;;;10.13;3.88;;;;;;;10.81;100.00;102329.81;5033412;28;20110;-77
2023/10/05 05:59:40;;;;;;;9.65;4.20;;;;;;;10.84;100.00;102318.50;5050097;28;20040;-77
2023/10/05 06:02:07;;;;;;;8.73;4.07;;;;;;;10.89;100.00;102316.75;5034654;28;20472;-77
2023/10/05 06:04:32;;;;;;;12.65;4.22;;;;;;;10.90;100.00;102314.16;5018308;28;20158;-77
2023/10/05 06:06:59;;;;;;;9.35;4.25;;;;;;;10.89;100.00;102303.72;5035979;28;20116;-77
2023/10/05 06:09:26;;;;;;;13.35;4.15;;;;;;;10.93;100.00;102316.75;5019505;28;20420;-77
2023/10/05 06:11:53;;;;;;;15.07;4.25;;;;;;;10.95;100.00;102321.97;5036270;28;20026;-77
2023/10/05 06:14:19;;;;;;;12.68;4.00;;;;;;;10.96;100.00;102329.81;5020560;28;20026;-77
2023/10/05 06:16:44;;;;;;;10.10;3.97;;;;;;;10.96;100.00;102329.81;5037707;28;20434;-78
2023/10/05 06:19:09;;;;;;;13.30;4.50;;;;;;;10.97;100.00;102334.16;5020625;28;20807;-78
2023/10/05 06:21:35;;;;;;;15.98;5.35;;;;;;;10.99;100.00;102339.38;5037411;28;20087;-77
2023/10/05 06:24:02;;;;;;;13.20;4.30;;;;;;;11.01;100.00;102338.47;5023605;28;20070;-77
2023/10/05 06:26:28;;;;;;;10.68;3.53;;;;;;;11.05;100.00;102341.09;5035908;28;20042;-77
2023/10/05 06:28:53;;;;;;;9.70;3.78;;;;;;;11.10;100.00;102339.34;5024827;28;20040;-77
2023/10/05 06:31:19;;;;;;;10.48;4.10;;;;;;;11.18;100.00;102348.03;5039551;28;20631;-77
2023/10/05 06:33:46;;;;;;;12.45;4.78;;;;;;;11.25;100.00;102348.03;5017454;28;20044;-77
2023/10/05 06:36:11;;;;;;;13.90;4.30;;;;;;;11.35;100.00;102353.25;5023666;28;20465;-77
2023/10/05 06:38:36;;;;;;;14.77;4.82;;;;;;;11.39;100.00;102363.66;5036363;28;20032;-77
2023/10/05 06:41:03;;;;;;;9.10;4.18;;;;;;;11.42;100.00;102353.22;5024076;28;20029;-77
2023/10/05 06:43:34;;;;;;;10.50;4.10;;;;;;;11.51;100.00;102361.88;5039470;28;20028;-77
2023/10/05 06:46:09;;;;;;;12.55;4.18;;;;;;;11.55;100.00;102350.56;5023664;28;20152;-77
2023/10/05 06:48:35;;;;;;;9.55;4.03;;;;;;;11.56;100.00;102350.53;5040376;28;20028;-77
2023/10/05 06:51:00;;;;;;;10.70;4.30;;;;;;;11.62;100.00;102354.88;5024419;28;20034;-77
2023/10/05 06:53:25;;;;;;;9.38;4.22;;;;;;;11.69;100.00;102370.53;5042416;28;20058;-78
2023/10/05 06:55:50;;;;;;;10.05;3.83;;;;;;;11.77;100.00;102369.63;5023665;28;20438;-77
2023/10/05 06:58:16;;;;;;;10.05;4.15;;;;;;;11.77;100.00;102375.72;5039728;28;20047;-78
2023/10/05 07:00:41;;;;;;;15.73;4.57;;;;;;;11.80;100.00;102374.81;5033610;28;20067;-77
2023/10/05 07:03:06;;;;;;;10.02;4.40;;;;;;;11.83;100.00;102374.81;5031453;28;20063;-77
2023/10/05 07:05:32;;;;;;;12.35;4.75;;;;;;;11.89;100.00;102391.38;5046006;28;20027;-78
2023/10/05 07:07:58;;;;;;;14.55;4.25;;;;;;;11.91;100.00;102375.69;5025727;28;20151;-77
2023/10/05 07:10:23;;;;;;;11.20;3.95;;;;;;;11.93;100.00;102385.28;5053189;28;20104;-77
2023/10/05 07:12:49;;;;;;;9.43;4.30;;;;;;;11.98;100.00;102390.47;5024981;28;20074;-77
2023/10/05 07:15:18;;;;;;;15.60;4.38;;;;;;;12.02;100.00;102401.78;5048421;28;20013;-77
2023/10/05 07:17:43;;;;;;;10.00;4.38;;;;;;;12.04;100.00;102397.44;5028379;28;20538;-77
2023/10/05 07:20:11;;;;;;;10.52;4.22;;;;;;;12.13;100.00;102407.81;5048014;28;20058;-77
2023/10/05 07:22:38;;;;;;;12.80;4.80;;;;;;;12.14;100.00;102399.13;5032395;28;20117;-77
2023/10/05 07:25:04;;;;;;;10.68;4.13;;;;;;;12.24;100.00;102402.56;5048594;28;20033;-77
2023/10/05 07:27:30;;;;;;;10.65;4.32;;;;;;;12.32;100.00;102393.75;5033305;28;20129;-77
2023/10/05 07:29:55;;;;;;;9.98;4.22;;;;;;;12.41;100.00;102404.19;5048846;28;20081;-77
2023/10/05 07:32:20;;;;;;;13.07;4.75;;;;;;;12.52;100.00;102409.31;5034905;28;20025;-77
2023/10/05 07:34:46;;;;;;;12.07;4.13;;;;;;;12.63;100.00;102417.13;5023149;28;20079;-77
2023/10/05 07:37:11;;;;;;;16.98;4.38;;;;;;;12.66;100.00;102422.34;5022523;28;20033;-77
2023/10/05 07:39:41;;;;;;;12.55;4.70;;;;;;;12.71;100.00;102425.78;5042593;28;20033;-77
2023/10/05 07:42:10;;;;;;;12.15;4.00;;;;;;;12.72;100.00;102429.25;5022049;28;20030;-77
2023/10/05 07:44:43;;;;;;;11.27;4.43;;;;;;;12.69;100.00;102422.31;5042883;28;20560;-77
2023/10/05 07:47:09;;;;;;;12.18;4.30;;;;;;;12.69;100.00;102430.16;5020693;28;20049;-77
2023/10/05 07:49:35;;;;;;;8.90;4.57;;;;;;;12.69;100.00;102426.66;5043260;28;20037;-77
2023/10/05 07:52:02;;;;;;;12.18;4.18;;;;;;;12.69;100.00;102432.78;5027770;28;20470;-78
2023/10/05 07:54:27;;;;;;;10.05;4.30;;;;;;;12.79;100.00;102442.31;5044211;28;20033;-77
2023/10/05 07:56:53;;;;;;;7.70;4.18;;;;;;;12.85;100.00;102437.03;5027658;28;20597;-77
2023/10/05 07:59:21;;;;;;;13.88;8.00;;;;;;;13.00;100.00;102437.78;5045067;28;20025;-77
2023/10/05 08:01:49;;;;;;;13.20;4.57;;;;;;;13.03;100.00;102435.13;5031106;28;20037;-77
2023/10/05 08:04:14;;;;;;;9.05;4.15;;;;;;;13.15;100.00;102439.41;5043672;28;20033;-77
2023/10/05 08:06:43;;;;;;;10.05;4.38;;;;;;;13.18;100.00;102444.59;5031640;28;20113;-78
2023/10/05 08:09:14;;;;;;;12.32;4.68;;;;;;;13.16;100.00;102441.16;5045053;28;20028;-77
2023/10/05 08:11:40;;;;;;;14.25;5.03;;;;;;;13.16;100.00;102439.38;5031056;28;20033;-77
2023/10/05 08:14:07;;;;;;;10.35;4.68;;;;;;;13.21;100.00;102442.84;5046341;28;20029;-77
2023/10/05 08:16:33;;;;;;;12.75;4.57;;;;;;;13.25;100.00;102441.09;5032328;28;20381;-77
2023/10/05 08:18:58;;;;;;;5.97;3.83;;;;;;;13.32;100.00;102440.16;5048463;28;20043;-77
2023/10/05 08:21:24;;;;;;;11.20;4.68;;;;;;;13.40;100.00;102453.16;5031611;28;20418;-77
2023/10/05 08:23:51;;;;;;;13.80;5.43;;;;;;;13.47;100.00;102449.59;5048033;28;20028;-78
2023/10/05 08:26:17;;;;;;;12.93;4.55;;;;;;;13.52;100.00;102451.31;5033369;28;20042;-77
2023/10/05 08:28:42;;;;;;;10.90;4.70;;;;;;;13.59;100.00;102450.34;5039958;28;20052;-78
2023/10/05 08:31:09;;;;;;;9.23;4.32;;;;;;;13.67;100.00;102446.78;5045730;28;20030;-77
2023/10/05 08:33:35;;;;;;;11.27;4.00;;;;;;;13.75;100.00;102445.81;5002513;28;20022;-77
2023/10/05 08:36:07;;;;;;;9.25;4.28;;;;;;;13.87;100.00;102454.44;5023912;28;20036;-77
2023/10/05 08:38:34;;;;;;;8.32;3.90;;;;;;;13.99;100.00;102457.75;5033968;28;20480;-78
2023/10/05 08:41:11;;;;;;;10.95;4.43;;;;;;;14.12;100.00;102457.63;5010764;28;20029;-77
2023/10/05 08:43:46;;;;;;;9.43;4.00;;;;;;;14.22;100.00;102457.50;5035740;28;20365;-78
2023/10/05 08:46:14;;;;;;;8.15;3.53;;;;;;;14.35;100.00;102467.81;5049655;28;20032;-78
2023/10/05 08:48:41;;;;;;;11.50;3.58;;;;;;;14.41;100.00;102472.97;5036224;28;20104;-78
2023/10/05 08:51:10;;;;;;;11.07;3.28;;;;;;;14.46;100.00;102469.41;5019037;28;20101;-78
2023/10/05 08:53:48;;;;;;;9.38;3.75;;;;;;;14.56;100.00;102475.44;5036652;28;20017;-78
2023/10/05 08:56:15;;;;;;;13.30;3.78;;;;;;;14.61;100.00;102478.84;5019924;28;20105;-77
2023/10/05 08:58:45;;;;;;;10.38;3.78;;;;;;;14.73;100.00;102483.06;5037912;28;20400;-77
2023/10/05 09:01:34;;;;;;;11.80;4.03;;;;;;;14.88;100.00;102477.59;5020157;28;20083;-77
2023/10/05 09:04:29;;;;;;;10.85;3.70;;;;;;;14.95;100.00;102481.84;5043719;28;20125;-77
2023/10/05 09:06:55;;;;;;;7.82;3.40;;;;;;;15.04;100.00;102483.47;5017367;28;20897;-77
2023/10/05 09:09:38;;;;;;;8.35;3.72;;;;;;;15.10;100.00;102485.97;5040559;28;20053;-78
2023/10/05 09:12:35;;;;;;;8.55;3.40;;;;;;;15.25;100.00;102498.00;5023934;28;20034;-78
2023/10/05 09:15:21;;;;;;;12.88;3.40;;;;;;;15.30;100.00;102503.19;5017483;28;20026;-77
2023/10/05 09:17:59;;;;;;;7.65;3.33;;;;;;;15.31;100.00;102510.19;5032952;28;20072;-78
2023/10/05 09:20:32;;;;;;;11.00;3.35;;;;;;;15.25;100.00;102513.78;5024735;28;20041;-77
2023/10/05 09:23:00;;;;;;;7.28;2.90;;;;;;;15.30;100.00;102511.06;5040775;28;20019;-77
2023/10/05 09:25:37;;;;;;;10.15;3.42;;;;;;;15.32;100.00;102527.69;5024703;28;20026;-77
2023/10/05 09:28:14;;;;;;;7.45;3.08;;;;;;;15.38;100.00;102533.69;5041764;28;20040;-78
2023/10/05 09:30:55;;;;;;;9.55;3.05;;;;;;;15.43;100.00;102516.09;5026966;28;20069;-77
2023/10/05 09:33:34;;;;;;;10.35;2.95;;;;;;;15.53;100.00;102513.28;5007176;28;20408;-77
2023/10/05 09:36:16;;;;;;;11.10;2.97;;;;;;;15.61;100.00;102520.16;5006625;28;20108;-77
2023/10/05 09:38:43;;;;;;;9.50;3.20;;;;;;;15.62;100.00;102521.88;5040057;28;20034;-77
2023/10/05 09:41:09;;;;;;;20.30;3.00;;;;;;;15.63;100.00;102520.13;5027168;28;20469;-78
2023/10/05 09:43:38;;;;;;;11.30;3.17;;;;;;;15.67;100.00;102503.44;5041317;28;20037;-78
2023/10/05 09:46:09;;;;;;;9.98;3.03;;;;;;;15.67;100.00;102514.81;5006012;28;20034;-78
2023/10/05 09:48:37;;;;;;;11.75;3.22;;;;;;;15.63;100.00;102502.59;5042406;28;20151;-77
2023/10/05 09:51:06;;;;;;;9.40;3.20;;;;;;;15.67;100.00;102513.97;5027047;28;20099;-78
2023/10/05 09:53:34;;;;;;;9.95;3.03;;;;;;;15.66;100.00;102513.09;5044719;28;20038;-77
2023/10/05 09:56:00;;;;;;;10.05;3.97;;;;;;;15.69;100.00;102520.03;5027168;28;20038;-78
2023/10/05 09:58:27;;;;;;;8.32;3.33;;;;;;;15.63;100.00;102523.63;5047674;28;20059;-77
2023/10/05 10:00:55;;;;;;;13.75;3.35;;;;;;;15.66;100.00;102523.63;5027062;28;20057;-77
2023/10/05 10:03:21;;;;;;;10.15;2.97;;;;;;;15.75;100.00;102526.97;5026194;28;20418;-77
2023/10/05 10:05:51;;;;;;;9.80;3.22;;;;;;;15.79;100.00;102513.72;5080939;28;20026;-78
2023/10/05 10:08:29;;;;;;;10.82;2.60;;;;;;;15.89;100.00;102517.94;5035089;28;20036;-77
2023/10/05 10:11:07;;;;;;;6.43;3.03;;;;;;;15.92;100.00;102509.09;5032096;28;20550;-77
2023/10/05 10:13:37;;;;;;;10.63;2.85;;;;;;;15.94;100.00;102506.44;5027636;28;20019;-77
2023/10/05 10:16:22;;;;;;;8.48;3.10;;;;;;;15.97;100.00;102520.41;5032908;28;20381;-77
2023/10/05 10:18:52;;;;;;;8.52;3.20;;;;;;;15.96;100.00;102521.31;5036033;28;20035;-77
2023/10/05 10:21:34;;;;;;;6.50;2.50;;;;;;;16.11;100.00;102517.50;5026917;28;20465;-77
2023/10/05 10:24:04;;;;;;;5.75;2.53;;;;;;;16.13;100.00;102508.69;5048746;28;20031;-77
2023/10/05 10:26:30;;;;;;;7.13;2.92;;;;;;;16.25;100.00;102511.94;5031605;28;20050;-78
2023/10/05 10:31:26;;;;;;;9.30;2.85;;;;;;;16.32;100.00;102513.56;5034539;28;20045;-78
2023/10/05 10:33:51;;;;;;;10.20;3.22;;;;;;;16.37;100.00;102509.94;5004071;28;20428;-77
2023/10/05 10:36:46;;;;;;;7.60;3.08;;;;;;;16.55;100.00;102515.72;5029749;28;20028;-77
2023/10/05 10:39:24;;;;;;;8.82;2.90;;;;;;;16.62;100.00;102510.28;5043849;28;20030;-77
2023/10/05 10:42:18;;;;;;;11.13;3.13;;;;;;;16.61;100.00;102515.56;5028427;28;20492;-77
2023/10/05 10:45:05;;;;;;;9.13;2.70;;;;;;;16.60;100.00;102508.56;5031013;28;20078;-77
2023/10/05 10:47:35;;;;;;;9.25;2.80;;;;;;;16.55;100.00;102518.34;5021298;28;20488;-78
2023/10/05 10:50:11;;;;;;;12.02;3.25;;;;;;;16.52;100.00;102519.28;5051248;28;20072;-77
2023/10/05 10:52:37;;;;;;;8.73;2.83;;;;;;;16.56;100.00;102518.31;5025571;28;20033;-78
2023/10/05 10:55:05;;;;;;;10.43;2.70;;;;;;;16.51;100.00;102509.66;5051875;28;20037;-77
2023/10/05 10:57:30;;;;;;;7.00;2.70;;;;;;;16.49;100.00;102506.19;5024756;28;20495;-78
2023/10/05 11:00:54;;;;;;;11.95;3.20;;;;;;;16.49;100.00;102500.91;5046067;28;20100;-77
2023/10/05 11:02:41;;;;;;;9.57;2.90;;;;;;;16.48;100.00;102503.56;5019866;28;20454;-77
2023/10/05 11:05:14;;;;;;;10.15;3.05;;;;;;;16.53;100.00;102496.44;5051380;28;20022;-77
2023/10/05 11:07:40;;;;;;;;;;;;;;;16.67;100.00;102502.25;5018018;28;20366;-77
2023/10/05 11:10:18;;;;;;;7.70;2.90;;;;;;;16.55;100.00;102494.66;5049028;28;20026;-78
2023/10/05 11:12:44;;;;;;;8.15;3.40;;;;;;;16.73;100.00;102503.91;5025450;28;20045;-78
2023/10/05 11:15:11;;;;;;;9.23;3.10;;;;;;;17.00;100.00;102498.03;5048235;28;20659;-78
2023/10/05 11:17:44;;;;;;;13.52;3.15;;;;;;;17.27;100.00;102495.63;5021199;28;20060;-78
2023/10/05 11:20:23;;;;;;;10.35;3.17;;;;;;;17.37;100.00;102499.75;5049173;28;20037;-77
2023/10/05 11:22:54;;;;;;;7.65;3.17;;;;;;;17.43;100.00;102504.88;5023074;28;20029;-78
2023/10/05 11:25:33;;;;;;;6.88;2.90;;;;;;;17.41;100.00;102506.66;5050843;28;20018;-78
2023/10/05 11:28:00;;;;;;;8.82;3.08;;;;;;;17.55;100.00;102499.25;5026514;28;20535;-78
2023/10/05 11:30:42;;;;;;;10.02;3.20;;;;;;;17.68;100.00;102489.25;5051411;28;20476;-78
2023/10/05 11:33:16;;;;;;;10.07;3.10;;;;;;;17.77;100.00;102493.44;5011419;28;20182;-78